createdAt,value
2022-11-17T00:02:03.126Z,0.40
2022-11-17T00:04:30.590Z,1.98
2022-11-17T00:06:59.587Z,1.25
2022-11-17T00:09:27.355Z,3.42
2022-11-17T00:12:12.505Z,1.60
2022-11-17T00:14:41.188Z,0.90
2022-11-17T00:17:11.767Z,1.38
2022-11-17T00:19:56.757Z,2.10
2022-11-17T00:22:25.947Z,1.67
2022-11-17T00:24:53.365Z,1.38
2022-11-17T00:27:20.862Z,2.00
2022-11-17T00:29:48.370Z,3.08
2022-11-17T00:32:34.849Z,1.40
2022-11-17T00:35:02.429Z,1.40
2022-11-17T00:37:34.327Z,2.30
2022-11-17T00:40:01.771Z,1.13
2022-11-17T00:42:29.217Z,0.50
2022-11-17T00:44:56.674Z,1.13
2022-11-17T00:47:24.101Z,0.68
2022-11-17T00:49:51.520Z,0.70
2022-11-17T00:52:18.978Z,0.65
2022-11-17T00:54:47.742Z,2.30
2022-11-17T00:57:15.170Z,0.30
2022-11-17T00:59:42.619Z,1.00
2022-11-17T01:02:10.063Z,0.47
2022-11-17T01:04:37.490Z,0.32
2022-11-17T01:07:04.965Z,0.32
2022-11-17T01:09:32.463Z,1.80
2022-11-17T01:12:01.250Z,1.08
2022-11-17T01:14:30.690Z,1.30
2022-11-17T01:16:58.109Z,0.55
2022-11-17T01:19:25.769Z,1.38
2022-11-17T01:21:53.378Z,3.33
2022-11-17T01:24:20.815Z,0.25
2022-11-17T01:26:50.457Z,0.70
2022-11-17T01:29:19.404Z,0.63
2022-11-17T01:31:51.725Z,0.40
2022-11-17T01:34:19.607Z,0.82
2022-11-17T01:37:06.779Z,0.22
2022-11-17T01:39:34.222Z,0.10
2022-11-17T01:42:05.334Z,1.40
2022-11-17T01:44:56.597Z,0.15
2022-11-17T01:47:29.298Z,0.63
2022-11-17T01:50:00.316Z,0.43
2022-11-17T01:52:29.488Z,1.58
2022-11-17T01:55:00.264Z,0.73
2022-11-17T01:57:33.390Z,0.50
2022-11-17T02:00:05.596Z,0.93
2022-11-17T02:02:34.419Z,1.60
2022-11-17T02:05:07.541Z,0.50
2022-11-17T02:07:38.644Z,0.70
2022-11-17T02:10:07.770Z,0.60
2022-11-17T02:12:37.114Z,2.63
2022-11-17T02:15:06.898Z,3.03
2022-11-17T02:17:37.621Z,0.98
2022-11-17T02:20:10.502Z,2.05
2022-11-17T02:23:24.769Z,2.08
2022-11-17T02:26:09.471Z,1.10
2022-11-17T02:28:42.837Z,1.63
2022-11-17T02:31:20.473Z,1.50
2022-11-17T02:33:55.620Z,1.53
2022-11-17T02:36:33.314Z,1.05
2022-11-17T02:39:10.780Z,0.68
2022-11-17T02:41:46.329Z,1.90
2022-11-17T02:44:18.305Z,3.70
2022-11-17T02:46:48.014Z,2.13
2022-11-17T02:49:20.795Z,2.17
2022-11-17T02:52:07.020Z,3.28
2022-11-17T02:54:34.705Z,2.20
2022-11-17T02:57:02.312Z,2.92
2022-11-17T02:59:34.024Z,4.93
2022-11-17T03:02:22.429Z,4.82
2022-11-17T03:05:02.227Z,2.38
2022-11-17T03:07:47.515Z,2.40
2022-11-17T03:10:21.354Z,1.70
2022-11-17T03:12:56.384Z,4.82
2022-11-17T03:15:32.855Z,4.45
2022-11-17T03:18:08.870Z,2.63
2022-11-17T03:20:41.911Z,2.33
2022-11-17T03:23:14.696Z,7.65
2022-11-17T03:25:46.386Z,3.93
2022-11-17T03:28:16.569Z,3.58
2022-11-17T03:30:48.457Z,6.75
2022-11-17T03:33:19.886Z,3.10
2022-11-17T03:35:52.466Z,3.85
2022-11-17T03:38:23.980Z,4.27
2022-11-17T03:40:55.807Z,3.78
2022-11-17T03:43:25.519Z,6.88
2022-11-17T03:45:57.219Z,5.47
2022-11-17T03:48:30.532Z,6.28
2022-11-17T03:51:06.375Z,3.63
2022-11-17T03:53:35.581Z,5.63
2022-11-17T03:56:11.757Z,6.03
2022-11-17T03:58:46.873Z,5.38
2022-11-17T04:01:18.640Z,2.70
2022-11-17T04:03:48.829Z,5.00
2022-11-17T04:06:16.304Z,3.20
2022-11-17T04:08:43.859Z,2.97
2022-11-17T04:11:28.751Z,4.78
2022-11-17T04:14:13.809Z,3.70
2022-11-17T04:16:43.123Z,2.40
2022-11-17T04:19:10.597Z,5.28
2022-11-17T04:21:38.069Z,2.42
2022-11-17T04:24:06.198Z,3.58
2022-11-17T04:26:51.131Z,1.67
2022-11-17T04:29:18.764Z,2.40
2022-11-17T04:31:47.571Z,8.70
2022-11-17T04:34:15.102Z,3.97
2022-11-17T04:36:46.517Z,4.38
2022-11-17T04:39:15.552Z,4.13
2022-11-17T04:41:57.072Z,4.20
2022-11-17T04:44:26.034Z,8.55
2022-11-17T04:46:56.039Z,6.68
2022-11-17T04:49:25.041Z,3.92
2022-11-17T04:51:53.356Z,1.95
2022-11-17T04:54:24.002Z,2.90
2022-11-17T04:56:52.458Z,5.05
2022-11-17T04:59:19.889Z,4.15
2022-11-17T05:01:47.459Z,3.53
2022-11-17T05:04:39.133Z,4.57
2022-11-17T05:07:07.287Z,5.77
2022-11-17T05:09:34.826Z,6.00
2022-11-17T05:12:19.918Z,3.75
2022-11-17T05:14:50.019Z,5.22
2022-11-17T05:17:16.861Z,1.92
2022-11-17T05:19:47.132Z,1.70
2022-11-17T05:22:37.368Z,6.68
2022-11-17T05:25:06.373Z,2.60
2022-11-17T05:27:34.951Z,4.80
2022-11-17T05:30:03.037Z,2.92
2022-11-17T05:32:30.487Z,5.33
2022-11-17T05:34:59.353Z,4.47
2022-11-17T05:37:26.781Z,7.45
2022-11-17T05:39:54.269Z,2.97
2022-11-17T05:42:21.744Z,2.15
2022-11-17T05:44:49.267Z,2.97
2022-11-17T05:47:17.189Z,3.15
2022-11-17T05:49:44.708Z,3.85
2022-11-17T05:52:13.460Z,2.72
2022-11-17T05:54:40.907Z,5.80
2022-11-17T05:57:11.371Z,2.77
2022-11-17T05:59:44.048Z,0.80
2022-11-17T06:02:16.177Z,2.60
2022-11-17T06:04:46.106Z,0.68
2022-11-17T06:07:15.009Z,0.63
2022-11-17T06:09:43.157Z,1.25
2022-11-17T06:12:11.887Z,1.20
2022-11-17T06:14:39.889Z,1.75
2022-11-17T06:17:13.429Z,1.08
2022-11-17T06:19:46.988Z,0.65
2022-11-17T06:22:15.972Z,0.30
2022-11-17T06:24:45.499Z,2.97
2022-11-17T06:27:16.251Z,1.70
2022-11-17T06:29:45.198Z,1.70
2022-11-17T06:32:13.674Z,1.00
2022-11-17T06:34:41.423Z,1.10
2022-11-17T06:37:08.888Z,0.38
2022-11-17T06:39:37.675Z,0.40
2022-11-17T06:42:05.203Z,0.17
2022-11-17T06:44:32.641Z,2.45
2022-11-17T06:47:00.106Z,0.60
2022-11-17T06:49:27.570Z,0.75
2022-11-17T06:51:55.098Z,0.30
2022-11-17T06:54:22.510Z,2.90
2022-11-17T06:56:52.388Z,0.85
2022-11-17T06:59:19.802Z,3.50
2022-11-17T07:01:47.211Z,0.70
2022-11-17T07:04:14.798Z,1.55
2022-11-17T07:06:42.268Z,1.08
2022-11-17T07:09:09.903Z,0.45
2022-11-17T07:11:37.426Z,2.03
2022-11-17T07:14:06.167Z,0.77
2022-11-17T07:20:14.503Z,2.42
2022-11-17T07:22:42.288Z,2.53
2022-11-17T07:25:10.445Z,1.03
2022-11-17T07:27:37.979Z,3.95
2022-11-17T07:30:09.573Z,0.50
2022-11-17T07:32:37.267Z,0.32
2022-11-17T07:35:05.804Z,0.65
2022-11-17T07:37:34.178Z,0.40
2022-11-17T07:40:01.601Z,3.80
2022-11-17T07:42:29.014Z,0.98
2022-11-17T07:44:56.487Z,0.45
2022-11-17T07:47:25.265Z,0.50
2022-11-17T07:49:52.721Z,0.10
2022-11-17T07:52:20.210Z,1.42
2022-11-17T07:54:47.647Z,3.05
2022-11-17T07:57:15.322Z,0.50
2022-11-17T07:59:42.786Z,2.65
2022-11-17T08:02:10.464Z,2.60
2022-11-17T08:04:39.251Z,0.50
2022-11-17T08:07:06.777Z,1.58
2022-11-17T08:09:34.228Z,1.75
2022-11-17T08:12:01.624Z,2.72
2022-11-17T08:14:30.099Z,1.08
2022-11-17T08:16:57.539Z,0.55
2022-11-17T08:19:24.957Z,3.35
2022-11-17T08:21:53.725Z,0.88
2022-11-17T08:24:21.168Z,2.25
2022-11-17T08:26:48.588Z,2.53
2022-11-17T08:29:16.037Z,0.98
2022-11-17T08:31:46.064Z,3.78
2022-11-17T08:34:13.726Z,6.75
2022-11-17T08:36:41.169Z,1.48
2022-11-17T08:39:09.965Z,0.77
2022-11-17T08:41:37.408Z,1.83
2022-11-17T08:44:05.293Z,2.80
2022-11-17T08:46:34.228Z,1.90
2022-11-17T08:49:02.843Z,0.98
2022-11-17T08:51:30.326Z,9.40
2022-11-17T08:53:59.594Z,2.05
2022-11-17T08:56:28.370Z,3.15
2022-11-17T08:58:55.879Z,2.88
2022-11-17T09:01:23.306Z,3.13
2022-11-17T09:03:50.927Z,0.53
2022-11-17T09:06:19.896Z,2.67
2022-11-17T09:08:47.759Z,3.05
2022-11-17T09:11:16.335Z,2.90
2022-11-17T09:13:46.655Z,1.60
2022-11-17T09:16:14.314Z,4.73
2022-11-17T09:18:42.079Z,2.17
2022-11-17T09:21:11.617Z,5.68
2022-11-17T09:23:39.436Z,6.15
2022-11-17T09:26:08.759Z,2.38
2022-11-17T09:28:36.962Z,4.77
2022-11-17T09:31:08.938Z,2.97
2022-11-17T09:33:36.684Z,0.93
2022-11-17T09:36:04.536Z,0.77
2022-11-17T09:38:32.059Z,2.67
2022-11-17T09:41:00.119Z,0.43
2022-11-17T09:43:30.023Z,2.60
2022-11-17T09:46:07.635Z,1.38
2022-11-17T09:48:43.049Z,0.47
2022-11-17T09:51:14.612Z,4.97
2022-11-17T09:53:48.210Z,0.33
2022-11-17T09:56:15.633Z,1.13
2022-11-17T09:58:47.020Z,2.05
2022-11-17T10:01:16.244Z,2.25
2022-11-17T10:03:47.797Z,3.03
2022-11-17T10:06:19.385Z,2.93
2022-11-17T10:08:58.073Z,1.70
2022-11-17T10:11:33.586Z,4.05
2022-11-17T10:14:12.433Z,2.35
2022-11-17T10:16:42.788Z,2.75
2022-11-17T10:19:16.420Z,1.13
2022-11-17T10:21:43.835Z,1.17
2022-11-17T10:24:11.384Z,1.17
2022-11-17T10:26:46.844Z,1.45
2022-11-17T10:29:16.533Z,1.38
2022-11-17T10:31:46.364Z,1.80
2022-11-17T10:34:36.990Z,2.35
2022-11-17T10:37:28.094Z,0.88
2022-11-17T10:40:24.753Z,3.05
2022-11-17T10:43:00.792Z,1.50
2022-11-17T10:45:28.391Z,1.27
2022-11-17T10:48:10.517Z,2.42
2022-11-17T10:50:52.422Z,4.70
2022-11-17T10:53:24.513Z,0.73
2022-11-17T10:55:59.592Z,1.50
2022-11-17T10:58:28.702Z,0.50
2022-11-17T11:00:58.511Z,2.08
2022-11-17T11:03:29.204Z,1.85
2022-11-17T11:06:03.565Z,1.15
2022-11-17T11:08:50.309Z,2.70
2022-11-17T11:11:25.207Z,2.93
2022-11-17T11:13:57.570Z,1.58
2022-11-17T11:16:26.813Z,1.38
2022-11-17T11:18:54.319Z,3.38
2022-11-17T11:21:39.718Z,4.72
2022-11-17T11:24:21.435Z,3.77
2022-11-17T11:27:01.888Z,0.90
2022-11-17T11:29:38.931Z,6.25
2022-11-17T11:32:21.224Z,0.90
2022-11-17T11:35:12.021Z,2.75
2022-11-17T11:37:55.733Z,2.83
2022-11-17T11:40:27.544Z,4.85
2022-11-17T11:42:58.472Z,6.22
2022-11-17T11:45:46.240Z,6.65
2022-11-17T11:48:20.467Z,4.60
2022-11-17T11:50:57.359Z,2.20
2022-11-17T11:53:32.739Z,5.47
2022-11-17T11:56:09.877Z,3.97
2022-11-17T11:58:43.206Z,7.32
2022-11-17T12:01:12.943Z,3.80
2022-11-17T12:03:47.346Z,3.87
2022-11-17T12:06:39.848Z,2.85
2022-11-17T12:09:25.232Z,3.80
2022-11-17T12:12:03.894Z,8.27
2022-11-17T12:14:33.980Z,3.60
2022-11-17T12:17:04.404Z,6.77
2022-11-17T12:19:53.828Z,5.85
2022-11-17T12:23:00.545Z,3.83
2022-11-17T12:25:32.572Z,7.75
2022-11-17T12:27:59.995Z,1.60
2022-11-17T12:30:51.764Z,2.43
2022-11-17T12:33:19.478Z,1.88
2022-11-17T12:35:47.113Z,0.75
2022-11-17T12:38:40.584Z,3.17
2022-11-17T12:41:09.754Z,2.70
2022-11-17T12:43:37.253Z,5.60
2022-11-17T12:46:24.150Z,3.65
2022-11-17T12:48:59.672Z,2.88
2022-11-17T12:51:35.951Z,0.55
2022-11-17T12:54:16.338Z,1.35
2022-11-17T12:57:03.591Z,7.20
2022-11-17T12:59:55.123Z,8.85
2022-11-17T13:02:37.234Z,4.00
2022-11-17T13:05:11.677Z,2.75
2022-11-17T13:07:39.138Z,2.17
2022-11-17T13:10:07.045Z,0.70
2022-11-17T13:12:36.348Z,2.08
2022-11-17T13:15:06.290Z,4.25
2022-11-17T13:17:39.853Z,4.00
2022-11-17T13:20:24.328Z,5.07
2022-11-17T13:23:00.647Z,2.83
2022-11-17T13:25:28.175Z,6.00
2022-11-17T13:28:03.036Z,1.85
2022-11-17T13:30:33.483Z,5.43
2022-11-17T13:33:02.911Z,3.40
2022-11-17T13:35:32.129Z,6.77
2022-11-17T13:38:05.770Z,2.38
2022-11-17T13:40:35.592Z,2.97
2022-11-17T13:43:05.918Z,4.50
2022-11-17T13:45:33.373Z,3.80
2022-11-17T13:48:00.829Z,4.73
2022-11-17T13:50:38.121Z,1.58
2022-11-17T13:53:19.377Z,3.92
2022-11-17T13:55:47.925Z,2.53
2022-11-17T13:58:35.739Z,1.58
2022-11-17T14:01:03.864Z,1.37
2022-11-17T14:03:35.336Z,2.63
2022-11-17T14:06:04.751Z,5.97
2022-11-17T14:08:34.011Z,1.90
2022-11-17T14:11:22.444Z,4.35
2022-11-17T14:13:53.776Z,5.07
2022-11-17T14:16:25.406Z,3.13
2022-11-17T14:18:58.479Z,2.15
2022-11-17T14:21:26.121Z,5.32
2022-11-17T14:24:03.949Z,3.63
2022-11-17T14:26:31.609Z,2.40
2022-11-17T14:29:02.207Z,2.10
2022-11-17T14:31:31.537Z,5.05
2022-11-17T14:33:59.693Z,1.25
2022-11-17T14:36:27.389Z,3.08
2022-11-17T14:38:55.326Z,4.03
2022-11-17T14:41:22.769Z,4.25
2022-11-17T14:43:51.119Z,1.65
2022-11-17T14:46:22.741Z,2.72
2022-11-17T14:48:50.212Z,1.35
2022-11-17T14:51:18.084Z,3.60
2022-11-17T14:53:45.888Z,4.40
2022-11-17T14:56:16.031Z,5.75
2022-11-17T14:58:43.428Z,4.93
2022-11-17T15:01:12.062Z,1.65
2022-11-17T15:03:40.822Z,4.37
2022-11-17T15:06:10.770Z,2.28
2022-11-17T15:08:40.466Z,4.20
2022-11-17T15:11:07.918Z,1.17
2022-11-17T15:13:35.335Z,4.18
2022-11-17T15:16:03.828Z,3.40
2022-11-17T15:18:31.483Z,3.42
2022-11-17T15:21:05.542Z,2.78
2022-11-17T15:23:33.881Z,1.88
2022-11-17T15:26:04.586Z,3.97
2022-11-17T15:28:32.282Z,2.37
2022-11-17T15:30:59.678Z,4.40
2022-11-17T15:33:27.130Z,5.15
2022-11-17T15:36:01.856Z,4.47
2022-11-17T15:38:31.475Z,2.28
2022-11-17T15:40:59.575Z,3.90
2022-11-17T15:43:27.821Z,5.03
2022-11-17T15:46:01.069Z,5.15
2022-11-17T15:48:28.777Z,3.45
2022-11-17T15:51:00.793Z,5.45
2022-11-17T15:53:32.980Z,5.60
2022-11-17T15:56:04.508Z,3.35
2022-11-17T15:58:32.243Z,4.43
2022-11-17T16:01:13.847Z,1.83
2022-11-17T16:03:42.644Z,3.30
2022-11-17T16:06:11.571Z,2.03
2022-11-17T16:08:40.725Z,3.33
2022-11-17T16:11:08.378Z,1.23
2022-11-17T16:13:35.820Z,4.38
2022-11-17T16:16:04.028Z,2.33
2022-11-17T16:18:33.403Z,4.67
2022-11-17T16:21:05.068Z,2.92
2022-11-17T16:23:39.983Z,2.85
2022-11-17T16:26:08.221Z,2.05
2022-11-17T16:28:35.685Z,4.53
2022-11-17T16:31:13.634Z,3.30
2022-11-17T16:33:41.708Z,3.05
2022-11-17T16:36:09.975Z,4.13
2022-11-17T16:38:42.335Z,2.30
2022-11-17T16:41:14.453Z,2.20
2022-11-17T16:43:44.755Z,3.78
2022-11-17T16:46:17.519Z,2.88
2022-11-17T16:48:45.273Z,6.80
2022-11-17T16:51:12.922Z,3.55
2022-11-17T16:53:40.454Z,2.45
2022-11-17T16:56:09.728Z,2.65
2022-11-17T16:58:38.922Z,4.07
2022-11-17T17:01:12.822Z,4.28
2022-11-17T17:03:41.201Z,3.38
2022-11-17T17:06:10.830Z,6.07
2022-11-17T17:08:38.547Z,1.20
2022-11-17T17:11:07.868Z,3.95
2022-11-17T17:13:36.139Z,6.78
2022-11-17T17:16:06.001Z,3.22
2022-11-17T17:18:33.932Z,2.22
2022-11-17T17:21:02.145Z,5.40
2022-11-17T17:23:29.982Z,1.13
2022-11-17T17:26:01.928Z,2.97
2022-11-17T17:28:30.875Z,3.60
2022-11-17T17:30:58.459Z,2.90
2022-11-17T17:33:27.834Z,1.63
2022-11-17T17:35:55.244Z,1.90
2022-11-17T17:38:23.071Z,0.80
2022-11-17T17:40:50.528Z,2.05
2022-11-17T17:43:17.942Z,1.58
2022-11-17T17:45:45.380Z,0.70
2022-11-17T17:48:12.836Z,1.63
2022-11-17T17:50:41.569Z,2.33
2022-11-17T17:53:08.978Z,1.58
2022-11-17T17:55:36.385Z,1.85
2022-11-17T17:58:03.800Z,2.23
2022-11-17T18:00:31.198Z,2.30
2022-11-17T18:03:00.714Z,3.00
2022-11-17T18:05:28.257Z,1.55
2022-11-17T18:07:57.039Z,3.42
2022-11-17T18:10:24.983Z,1.33
2022-11-17T18:12:52.435Z,1.10
2022-11-17T18:15:19.829Z,1.67
2022-11-17T18:17:47.221Z,2.53
2022-11-17T18:20:14.633Z,3.88
2022-11-17T18:22:42.033Z,3.07
2022-11-17T18:25:15.143Z,2.88
2022-11-17T18:27:45.116Z,3.25
2022-11-17T18:30:13.370Z,3.33
2022-11-17T18:32:40.803Z,6.35
2022-11-17T18:35:09.224Z,3.93
2022-11-17T18:37:36.649Z,4.32
2022-11-17T18:40:04.506Z,2.00
2022-11-17T18:42:34.273Z,3.60
2022-11-17T18:45:01.679Z,5.05
2022-11-17T18:47:29.148Z,1.23
2022-11-17T18:49:56.558Z,2.90
2022-11-17T18:52:28.505Z,4.72
2022-11-17T18:54:58.602Z,5.70
2022-11-17T18:57:26.013Z,5.95
2022-11-17T18:59:54.780Z,7.30
2022-11-17T19:02:22.190Z,4.50
2022-11-17T19:04:49.622Z,5.20
2022-11-17T19:07:17.116Z,5.03
2022-11-17T19:09:44.599Z,5.53
2022-11-17T19:12:12.365Z,4.73
2022-11-17T19:14:39.791Z,5.07
2022-11-17T19:17:08.579Z,6.90
2022-11-17T19:19:36.626Z,7.53
2022-11-17T19:22:04.381Z,5.53
2022-11-17T19:24:31.802Z,4.40
2022-11-17T19:26:59.225Z,2.63
2022-11-17T19:29:26.705Z,3.10
2022-11-17T19:31:54.547Z,8.55
2022-11-17T19:34:23.325Z,5.70
2022-11-17T19:36:50.755Z,6.07
2022-11-17T19:39:18.539Z,6.72
2022-11-17T19:41:47.492Z,8.90
2022-11-17T19:44:14.960Z,7.20
2022-11-17T19:46:43.098Z,7.47
2022-11-17T19:49:12.648Z,13.37
2022-11-17T19:51:42.071Z,4.93
2022-11-17T19:54:10.758Z,9.52
2022-11-17T19:56:39.125Z,4.97
2022-11-17T19:59:10.998Z,8.18
2022-11-17T20:01:41.685Z,8.43
2022-11-17T20:04:09.207Z,9.15
2022-11-17T20:06:39.170Z,6.63
2022-11-17T20:09:09.370Z,8.00
2022-11-17T20:11:37.373Z,6.00
2022-11-17T20:14:05.093Z,9.13
2022-11-17T20:16:32.966Z,2.95
2022-11-17T20:19:02.020Z,7.07
2022-11-17T20:21:31.342Z,7.18
2022-11-17T20:24:00.987Z,4.13
2022-11-17T20:26:31.633Z,9.03
2022-11-17T20:28:59.724Z,7.13
2022-11-17T20:31:29.281Z,8.98
2022-11-17T20:34:00.517Z,6.32
2022-11-17T20:36:29.707Z,6.10
2022-11-17T20:38:58.474Z,10.45
2022-11-17T20:41:26.438Z,8.93
2022-11-17T20:43:56.843Z,9.02
2022-11-17T20:46:25.071Z,6.78
2022-11-17T20:48:52.490Z,6.35
2022-11-17T20:51:21.590Z,5.10
2022-11-17T20:53:49.282Z,5.05
2022-11-17T20:56:18.000Z,10.27
2022-11-17T20:58:46.179Z,3.72
2022-11-17T21:01:17.065Z,5.53
2022-11-17T21:03:45.178Z,6.27
2022-11-17T21:06:13.509Z,6.57
2022-11-17T21:08:42.509Z,3.97
2022-11-17T21:11:32.095Z,6.32
2022-11-17T21:13:59.719Z,4.63
2022-11-17T21:16:28.831Z,8.60
2022-11-17T21:18:56.291Z,6.63
2022-11-17T21:21:23.744Z,7.82
2022-11-17T21:23:54.408Z,9.95
2022-11-17T21:26:22.903Z,7.82
2022-11-17T21:28:50.801Z,6.63
2022-11-17T21:31:19.726Z,6.30
2022-11-17T21:33:52.147Z,6.65
2022-11-17T21:36:19.590Z,6.88
2022-11-17T21:38:47.664Z,8.55
2022-11-17T21:41:17.294Z,7.97
2022-11-17T21:43:46.483Z,8.75
2022-11-17T21:46:16.126Z,10.60
2022-11-17T21:48:43.851Z,12.43
2022-11-17T21:51:18.387Z,13.00
2022-11-17T21:53:46.032Z,14.73
2022-11-17T21:56:14.251Z,9.40
2022-11-17T21:58:41.785Z,12.90
2022-11-17T22:01:10.813Z,9.30
2022-11-17T22:03:38.765Z,12.60
2022-11-17T22:06:08.280Z,6.67
2022-11-17T22:08:38.814Z,8.23
2022-11-17T22:11:07.728Z,7.47
2022-11-17T22:13:35.210Z,9.35
2022-11-17T22:16:08.387Z,5.60
2022-11-17T22:18:36.150Z,9.77
2022-11-17T22:21:03.695Z,6.40
2022-11-17T22:23:31.468Z,6.30
2022-11-17T22:26:02.556Z,6.13
2022-11-17T22:28:31.158Z,8.27
2022-11-17T22:30:58.705Z,5.70
2022-11-17T22:33:26.162Z,6.38
2022-11-17T22:35:53.639Z,5.07
2022-11-17T22:38:21.064Z,8.60
2022-11-17T22:40:48.471Z,13.32
2022-11-17T22:43:17.201Z,8.55
2022-11-17T22:45:44.730Z,12.65
2022-11-17T22:48:12.188Z,9.30
2022-11-17T22:50:39.889Z,16.67
2022-11-17T22:53:07.385Z,10.90
2022-11-17T22:55:34.898Z,14.05
2022-11-17T22:58:02.351Z,16.05
2022-11-17T23:00:32.338Z,14.52
2022-11-17T23:02:59.761Z,10.65
2022-11-17T23:05:27.219Z,18.52
2022-11-17T23:07:54.647Z,9.40
2022-11-17T23:10:22.254Z,11.68
2022-11-17T23:12:50.925Z,10.20
2022-11-17T23:15:18.453Z,11.15
2022-11-17T23:17:47.849Z,9.73
2022-11-17T23:20:15.638Z,11.85
2022-11-17T23:22:43.130Z,10.20
2022-11-17T23:25:10.828Z,12.10
2022-11-17T23:27:38.271Z,16.00
2022-11-17T23:30:06.668Z,8.68
2022-11-17T23:32:34.142Z,7.87
2022-11-17T23:35:02.921Z,10.48
2022-11-17T23:37:30.385Z,10.52
2022-11-17T23:39:57.832Z,11.93
2022-11-17T23:42:29.933Z,10.90
2022-11-17T23:44:59.616Z,8.23
2022-11-17T23:47:27.023Z,6.82
2022-11-17T23:49:54.469Z,12.23
2022-11-17T23:52:23.691Z,14.05
2022-11-17T23:54:51.213Z,8.05
2022-11-17T23:57:18.656Z,11.98
2022-11-17T23:59:46.095Z,10.73
